Disclaimer

Please do not use the information listed here in-flight or in-navigation, as they are not provided to us by the airports but are provided by volunteers, so they might be outdated.

Search


Regions


Airport information page

Radio informations:
Tower (TWR) - 123.6 MHz
PTD - 307.4 MHz
METRO - 290.6 MHz
Ground (GND) - 122.8 MHz
Automatic Terminal Information Service (ATIS) - 230.3 MHz
OKINAWA APP/DEP - SEEREMAR MHz

Airport informations:
Latitude: 26° 16' 27.39" N
Longitude: 127° 45' 23.38" E
Elevation: 247 feet - 75 meters
Operating hours: Remarks
Operating agency: Military
Timezone: UTC+9
Fuel: JP-5, Keroscene MIL Spec T-5624

Runway information:
06/24 - 9000 x 150 feet< - >2743 x 46 meters

Recent METARs:
ROTM 182256Z 35007KT 9999 SCT018 BKN040 BKN060 23/22 A3000 RMK SLP144 STNPR29700 T02330222
ROTM 182256Z 35007KT 9999 SCT018 BKN040 BKN060 23/22 A3000 RMK SLP144 STNPR29700 T02330222
ROTM 182256Z 35007KT 9999 SCT018 BKN040 BKN060 23/22 A3000 RMK SLP144 STNPR29700 T02330222

Airport on the map: